Time;durP1;ratioP1;P1;durP2;ratioP2;P2;SDS_P1;SDS_P2;PMS_P1;PMS_P2;Temp;Humidity;BMP_temperature;BMP_pressure;BME280_temperature;BME280_humidity;BME280_pressure;Samples;Min_cycle;Max_cycle;Signal;HPM_P1;HPM_P2
2023/03/19 00:01:49;;;;;;;9.60;7.17;;;;;;;5.59;100.00;95958.97;5011849;28;102466;-63
2023/03/19 00:04:16;;;;;;;10.73;7.03;;;;;;;5.45;100.00;95962.88;5011326;28;102317;-63
2023/03/19 00:06:43;;;;;;;10.07;7.60;;;;;;;5.49;100.00;95949.00;5014228;28;103332;-63
2023/03/19 00:09:10;;;;;;;8.27;7.47;;;;;;;5.59;100.00;95964.25;5029981;28;105566;-63
2023/03/19 00:11:37;;;;;;;9.37;6.60;;;;;;;5.58;100.00;95963.47;5031303;28;102231;-63
2023/03/19 00:14:06;;;;;;;11.57;7.20;;;;;;;5.61;100.00;95967.44;5030427;28;105121;-63
2023/03/19 00:16:33;;;;;;;12.57;7.90;;;;;;;5.67;100.00;95967.34;5030343;28;104401;-64
2023/03/19 00:19:00;;;;;;;9.90;6.87;;;;;;;5.76;100.00;95967.81;5034592;28;101925;-63
2023/03/19 00:21:27;;;;;;;12.97;7.67;;;;;;;5.62;100.00;95964.59;5031793;27;102605;-63
2023/03/19 00:23:59;;;;;;;9.27;6.93;;;;;;;5.44;100.00;95971.81;5017192;27;101960;-63
2023/03/19 00:26:26;;;;;;;10.07;6.90;;;;;;;5.34;100.00;95971.59;5031179;28;105158;-63
2023/03/19 00:28:54;;;;;;;8.50;7.03;;;;;;;5.29;100.00;95977.53;5031410;28;103111;-63
2023/03/19 00:31:23;;;;;;;13.33;6.90;;;;;;;5.23;100.00;95972.38;5030577;28;101892;-63
2023/03/19 00:33:52;;;;;;;10.53;7.40;;;;;;;5.21;100.00;95975.22;5030500;28;102506;-63
2023/03/19 00:36:19;;;;;;;9.50;7.43;;;;;;;5.23;100.00;95977.66;5031906;27;102681;-63
2023/03/19 00:38:47;;;;;;;10.97;7.20;;;;;;;5.35;100.00;95973.19;5015693;28;101891;-63
2023/03/19 00:41:16;;;;;;;8.83;6.87;;;;;;;5.48;100.00;95965.06;5009905;28;105898;-63
2023/03/19 00:43:43;;;;;;;9.83;7.10;;;;;;;5.55;100.00;95971.81;5009821;28;102000;-63
2023/03/19 00:46:10;;;;;;;9.10;6.87;;;;;;;5.48;100.00;95954.50;5011711;28;105172;-64
2023/03/19 00:48:39;;;;;;;9.47;6.90;;;;;;;5.49;100.00;95956.91;5009859;28;105828;-63
2023/03/19 00:51:08;;;;;;;11.50;7.40;;;;;;;5.31;100.00;95972.03;5010418;28;101800;-63
2023/03/19 00:53:38;;;;;;;11.37;7.60;;;;;;;5.20;100.00;95973.63;5010311;28;105168;-63
2023/03/19 00:56:06;;;;;;;9.93;7.90;;;;;;;5.25;100.00;95979.00;5010775;28;105358;-63
2023/03/19 00:58:33;;;;;;;10.67;7.07;;;;;;;5.35;100.00;95981.88;5010103;28;101799;-63
2023/03/19 01:01:02;;;;;;;10.90;7.43;;;;;;;5.39;100.00;95987.50;5013156;28;105228;-63
2023/03/19 01:03:30;;;;;;;9.47;6.57;;;;;;;5.44;100.00;95998.16;5010168;28;101912;-63
2023/03/19 01:05:59;;;;;;;9.67;6.97;;;;;;;5.56;100.00;95996.38;5023889;28;105113;-63
2023/03/19 01:08:26;;;;;;;8.83;6.93;;;;;;;5.63;100.00;95997.06;5029690;28;105419;-63
2023/03/19 01:10:53;;;;;;;9.93;7.63;;;;;;;5.45;100.00;95999.81;5029527;28;101878;-64
2023/03/19 01:13:20;;;;;;;12.97;8.23;;;;;;;5.27;100.00;96002.50;5030144;28;105557;-63
2023/03/19 01:15:52;;;;;;;10.67;7.43;;;;;;;5.32;100.00;96005.25;5028536;28;105486;-63
2023/03/19 01:18:21;;;;;;;9.07;6.50;;;;;;;5.27;100.00;96000.69;5028617;28;101866;-64
2023/03/19 01:20:48;;;;;;;8.67;6.60;;;;;;;5.26;100.00;95998.28;5030218;28;105082;-63
2023/03/19 01:23:16;;;;;;;8.10;6.70;;;;;;;5.19;100.00;96005.47;5032427;28;105171;-63
2023/03/19 01:25:43;;;;;;;10.27;7.10;;;;;;;5.21;100.00;96006.06;5029509;28;103459;-63
2023/03/19 01:28:10;;;;;;;8.20;6.67;;;;;;;5.01;100.00;96023.97;5025636;28;105300;-63
2023/03/19 01:30:40;;;;;;;8.70;6.40;;;;;;;5.10;100.00;96022.63;5019432;28;102027;-63
2023/03/19 01:33:11;;;;;;;10.60;6.43;;;;;;;5.07;100.00;96031.00;5028337;27;102349;-63
2023/03/19 01:35:52;;;;;;;7.50;6.00;;;;;;;5.01;100.00;96018.69;5028055;28;105287;-64
2023/03/19 01:38:24;;;;;;;9.03;6.53;;;;;;;4.78;100.00;96021.25;5009752;28;102093;-64
2023/03/19 01:40:52;;;;;;;7.67;6.27;;;;;;;4.92;100.00;96014.81;5021570;28;105522;-63
2023/03/19 01:43:21;;;;;;;8.13;5.97;;;;;;;4.89;100.00;96023.94;5028256;28;104268;-64
2023/03/19 01:46:07;;;;;;;9.70;6.77;;;;;;;4.78;100.00;96027.34;5020846;28;101867;-63
2023/03/19 01:48:39;;;;;;;11.93;6.67;;;;;;;4.79;100.00;96021.03;5007274;28;103055;-63
2023/03/19 01:51:14;;;;;;;9.30;6.40;;;;;;;4.79;100.00;96017.59;5016379;28;101882;-63
2023/03/19 01:54:07;;;;;;;8.87;6.80;;;;;;;4.77;100.00;96019.66;5012242;28;102202;-63
2023/03/19 01:57:10;;;;;;;7.47;5.90;;;;;;;4.43;100.00;96012.41;5017505;28;102635;-63
2023/03/19 02:00:00;;;;;;;7.97;6.13;;;;;;;4.24;100.00;96016.88;5007987;28;101966;-63
2023/03/19 02:02:49;;;;;;;8.53;6.53;;;;;;;4.06;100.00;96010.81;5007862;28;102013;-63
2023/03/19 02:05:39;;;;;;;7.60;5.80;;;;;;;4.36;100.00;96007.22;5008805;28;105162;-64
2023/03/19 02:08:12;;;;;;;9.00;6.77;;;;;;;4.18;100.00;96007.25;5010610;28;103622;-63
2023/03/19 02:10:41;;;;;;;8.43;6.43;;;;;;;4.07;100.00;96009.78;5011405;28;103581;-63
2023/03/19 02:13:07;;;;;;;8.10;5.97;;;;;;;4.06;100.00;96008.19;5009211;28;101942;-64
2023/03/19 02:15:34;;;;;;;7.57;6.07;;;;;;;4.11;100.00;96010.97;5009258;28;105186;-64
2023/03/19 02:18:01;;;;;;;8.40;5.93;;;;;;;4.04;100.00;96000.50;5008531;28;105463;-64
2023/03/19 02:20:34;;;;;;;7.43;5.77;;;;;;;4.00;100.00;95999.34;5027485;28;101782;-63
2023/03/19 02:23:11;;;;;;;9.37;6.37;;;;;;;3.98;100.00;96008.47;5013800;28;105187;-63
2023/03/19 02:25:55;;;;;;;8.13;5.73;;;;;;;4.11;100.00;96005.69;5025667;28;103821;-63
2023/03/19 02:28:24;;;;;;;7.17;6.13;;;;;;;4.13;100.00;96008.91;5011488;28;101752;-63
2023/03/19 02:30:54;;;;;;;9.00;6.93;;;;;;;4.08;100.00;96000.84;5028816;28;105239;-63
2023/03/19 02:33:22;;;;;;;10.40;7.70;;;;;;;4.25;100.00;95999.28;5012936;28;102537;-63
2023/03/19 02:35:52;;;;;;;9.17;7.10;;;;;;;4.30;100.00;96002.03;5010051;28;105623;-64
2023/03/19 02:38:21;;;;;;;9.40;7.23;;;;;;;4.30;100.00;96002.03;5009464;28;103093;-63
2023/03/19 02:40:52;;;;;;;8.83;7.27;;;;;;;4.34;100.00;96005.81;5008832;28;101913;-63
2023/03/19 02:43:22;;;;;;;12.27;8.80;;;;;;;4.44;100.00;96006.13;5008397;28;102830;-63
2023/03/19 02:45:52;;;;;;;12.97;8.90;;;;;;;4.55;100.00;96005.38;5009282;28;105347;-63
2023/03/19 02:48:18;;;;;;;16.73;8.80;;;;;;;4.59;100.00;96015.22;5016838;28;103457;-63
2023/03/19 02:50:46;;;;;;;12.17;8.63;;;;;;;4.73;100.00;96007.97;5028459;28;105839;-63
2023/03/19 02:53:14;;;;;;;11.93;8.70;;;;;;;4.83;100.00;96010.88;5014986;28;105546;-63
2023/03/19 02:55:41;;;;;;;10.83;8.90;;;;;;;4.76;100.00;96010.16;5011994;28;105320;-63
2023/03/19 02:58:08;;;;;;;10.90;8.57;;;;;;;4.79;100.00;96014.97;5008003;28;105684;-64
2023/03/19 03:00:37;;;;;;;10.77;8.50;;;;;;;4.87;100.00;96017.31;5020808;28;101908;-63
2023/03/19 03:03:05;;;;;;;10.70;8.40;;;;;;;4.90;100.00;96019.47;5029468;28;102507;-63
2023/03/19 03:05:32;;;;;;;11.80;8.30;;;;;;;4.95;100.00;96019.59;5026403;28;105452;-63
2023/03/19 03:07:59;;;;;;;9.33;7.83;;;;;;;4.97;100.00;96026.25;5028434;28;102026;-64
2023/03/19 03:10:27;;;;;;;10.77;7.77;;;;;;;4.96;100.00;96031.78;5029426;27;102775;-63
2023/03/19 03:12:55;;;;;;;10.63;7.33;;;;;;;4.70;100.00;96022.38;5027642;28;105485;-63
2023/03/19 03:15:21;;;;;;;7.77;6.53;;;;;;;4.62;100.00;96024.50;5033213;28;101767;-63
2023/03/19 03:17:50;;;;;;;7.80;6.70;;;;;;;4.59;100.00;96020.50;5029061;27;102592;-63
2023/03/19 03:20:18;;;;;;;10.23;6.80;;;;;;;4.52;100.00;96025.03;5029054;27;101834;-64
2023/03/19 03:22:46;;;;;;;10.13;6.83;;;;;;;4.44;100.00;96025.34;5031800;28;105220;-63
2023/03/19 03:25:13;;;;;;;8.67;6.83;;;;;;;4.38;100.00;96039.41;5032293;27;102552;-64
2023/03/19 03:27:41;;;;;;;10.10;6.90;;;;;;;4.50;100.00;96036.81;5031845;28;101891;-63
2023/03/19 03:30:10;;;;;;;7.70;6.90;;;;;;;4.44;100.00;96029.81;5014260;28;103787;-63
2023/03/19 03:32:38;;;;;;;8.17;6.43;;;;;;;4.38;100.00;96033.31;5012285;28;102513;-64
2023/03/19 03:35:08;;;;;;;7.47;6.77;;;;;;;4.38;100.00;96043.84;5013126;28;101886;-64
2023/03/19 03:37:35;;;;;;;8.17;7.20;;;;;;;4.20;100.00;96044.66;5034018;28;105697;-64
2023/03/19 03:40:08;;;;;;;7.70;6.77;;;;;;;4.25;100.00;96051.91;5029806;28;102085;-64
2023/03/19 03:42:36;;;;;;;8.47;6.50;;;;;;;4.20;100.00;96054.38;5029873;28;105304;-63
2023/03/19 03:45:06;;;;;;;10.80;6.80;;;;;;;4.31;100.00;96051.03;5025049;28;104220;-64
2023/03/19 03:47:33;;;;;;;7.83;7.03;;;;;;;4.17;100.00;96049.56;5014555;28;101871;-64
2023/03/19 03:50:00;;;;;;;8.23;6.60;;;;;;;4.01;100.00;96045.69;5030881;28;105530;-63
2023/03/19 03:52:30;;;;;;;8.47;6.23;;;;;;;3.96;100.00;96042.88;5027595;28;105453;-63
2023/03/19 03:54:58;;;;;;;10.87;6.23;;;;;;;4.01;100.00;96048.31;5015414;28;102072;-64
2023/03/19 03:57:25;;;;;;;9.07;6.27;;;;;;;4.09;100.00;96044.59;5023181;28;104981;-64
2023/03/19 03:59:52;;;;;;;7.40;6.27;;;;;;;4.17;100.00;96045.09;5013734;28;105374;-64
2023/03/19 04:02:20;;;;;;;7.00;6.30;;;;;;;4.28;100.00;96048.81;5017710;28;104926;-64
2023/03/19 04:04:47;;;;;;;8.03;6.93;;;;;;;4.28;100.00;96054.91;5028768;28;105129;-63
2023/03/19 04:07:15;;;;;;;7.20;6.50;;;;;;;4.17;100.00;96062.72;5014164;28;102485;-63
2023/03/19 04:09:49;;;;;;;7.53;6.50;;;;;;;4.10;100.00;96068.03;5029422;28;105312;-64
2023/03/19 04:12:17;;;;;;;8.53;6.63;;;;;;;4.00;100.00;96061.66;5010284;28;104307;-64
2023/03/19 04:14:44;;;;;;;9.90;6.80;;;;;;;4.00;100.00;96072.19;5012149;28;102021;-64
2023/03/19 04:17:11;;;;;;;7.37;6.43;;;;;;;4.04;100.00;96076.78;5011027;28;105187;-63
2023/03/19 04:19:38;;;;;;;7.73;6.93;;;;;;;4.06;100.00;96076.59;5013532;28;105314;-64
2023/03/19 04:22:06;;;;;;;7.27;6.57;;;;;;;3.91;100.00;96068.22;5035953;28;102436;-64
2023/03/19 04:24:34;;;;;;;8.80;6.30;;;;;;;3.96;100.00;96073.63;5025768;28;105450;-63
2023/03/19 04:27:04;;;;;;;8.17;6.57;;;;;;;3.90;100.00;96075.31;5010927;28;101796;-63
2023/03/19 04:29:31;;;;;;;8.53;6.90;;;;;;;3.90;100.00;96074.50;5024588;28;105240;-64
2023/03/19 04:31:58;;;;;;;8.00;6.80;;;;;;;4.02;100.00;96076.22;5029657;28;105437;-62
2023/03/19 04:34:25;;;;;;;7.87;7.00;;;;;;;4.11;100.00;96079.38;5029919;28;102137;-61
2023/03/19 04:36:52;;;;;;;7.60;6.90;;;;;;;4.11;100.00;96068.84;5032304;28;102562;-61
2023/03/19 04:39:19;;;;;;;11.40;7.00;;;;;;;4.10;100.00;96068.03;5031426;27;102645;-61
2023/03/19 04:41:47;;;;;;;9.67;7.00;;;;;;;4.07;100.00;96079.00;5030519;28;101976;-61
2023/03/19 04:44:42;;;;;;;9.07;6.50;;;;;;;4.05;100.00;96086.28;5032780;28;105830;-64
2023/03/19 04:47:11;;;;;;;7.87;7.17;;;;;;;4.07;100.00;96091.34;5029496;28;102005;-61
2023/03/19 04:49:49;;;;;;;9.47;7.53;;;;;;;4.08;100.00;96091.13;5010538;28;105241;-62
2023/03/19 04:52:18;;;;;;;9.67;7.10;;;;;;;4.13;100.00;96083.41;5010940;28;105541;-61
2023/03/19 04:54:45;;;;;;;8.80;7.20;;;;;;;4.13;100.00;96088.66;5021312;28;102115;-62
2023/03/19 04:57:12;;;;;;;9.97;7.53;;;;;;;4.18;100.00;96096.69;5012105;28;102546;-61
2023/03/19 04:59:43;;;;;;;10.00;8.07;;;;;;;4.22;100.00;96097.06;5010224;28;105026;-61
2023/03/19 05:02:13;;;;;;;9.47;7.90;;;;;;;4.21;100.00;96100.72;5030344;28;101825;-61
2023/03/19 05:04:43;;;;;;;10.30;7.53;;;;;;;4.11;100.00;96090.72;5030398;28;105267;-62
2023/03/19 05:07:13;;;;;;;10.63;7.80;;;;;;;3.90;100.00;96099.00;5018004;28;101854;-62
2023/03/19 05:09:45;;;;;;;9.50;7.20;;;;;;;4.08;100.00;96093.75;5010158;28;103345;-62
2023/03/19 05:12:12;;;;;;;9.93;8.07;;;;;;;4.03;100.00;96098.88;5026400;28;105752;-61
2023/03/19 05:14:46;;;;;;;10.50;8.40;;;;;;;4.07;100.00;96099.22;5023486;28;102136;-62
2023/03/19 05:17:18;;;;;;;9.30;8.30;;;;;;;4.12;100.00;96099.38;5020683;28;105079;-61
2023/03/19 05:19:55;;;;;;;12.07;10.10;;;;;;;4.19;100.00;96108.00;5020960;28;105057;-61
2023/03/19 05:22:23;;;;;;;12.43;9.20;;;;;;;4.19;100.00;96103.56;5008959;28;102025;-61
2023/03/19 05:24:52;;;;;;;10.80;8.73;;;;;;;4.27;100.00;96116.44;5011039;28;104613;-62
2023/03/19 05:27:19;;;;;;;9.97;8.33;;;;;;;4.32;100.00;96118.44;5012588;28;105863;-62
2023/03/19 05:29:59;;;;;;;8.47;7.57;;;;;;;4.34;100.00;96121.63;5017888;28;103762;-61
2023/03/19 05:32:45;;;;;;;12.00;7.90;;;;;;;4.33;100.00;96130.56;5010637;27;102487;-62
2023/03/19 05:35:21;;;;;;;8.67;7.40;;;;;;;4.15;100.00;96127.91;5010890;28;101828;-62
2023/03/19 05:37:48;;;;;;;9.87;7.50;;;;;;;4.15;100.00;96144.50;5010806;28;105362;-61
2023/03/19 05:40:15;;;;;;;10.83;7.43;;;;;;;4.16;100.00;96150.56;5009066;28;105863;-61
2023/03/19 05:42:45;;;;;;;8.57;7.43;;;;;;;4.31;100.00;96141.31;5008912;28;102012;-62
2023/03/19 05:45:16;;;;;;;11.47;8.33;;;;;;;4.39;100.00;96143.66;5008353;28;104586;-61
2023/03/19 05:47:49;;;;;;;8.20;7.30;;;;;;;4.38;100.00;96146.50;5016035;28;104192;-61
2023/03/19 05:50:17;;;;;;;8.70;7.13;;;;;;;4.51;100.00;96154.25;5013003;28;101964;-61
2023/03/19 05:53:03;;;;;;;9.50;7.77;;;;;;;4.44;100.00;96140.38;5009039;28;105033;-61
2023/03/19 05:55:32;;;;;;;9.77;7.17;;;;;;;4.54;100.00;96151.22;5009586;28;102430;-61
2023/03/19 05:58:06;;;;;;;8.33;7.27;;;;;;;4.51;100.00;96149.00;5010398;28;103578;-61
2023/03/19 06:00:35;;;;;;;8.20;7.17;;;;;;;4.68;100.00;96152.66;5008851;28;105327;-61
2023/03/19 06:03:04;;;;;;;8.43;7.47;;;;;;;4.66;100.00;96152.09;5010317;28;101895;-61
2023/03/19 06:06:00;;;;;;;8.00;7.00;;;;;;;4.73;100.00;96161.53;5006437;28;103211;-62
2023/03/19 06:08:37;;;;;;;9.00;7.53;;;;;;;4.96;100.00;96164.31;5025158;28;105509;-61
2023/03/19 06:11:21;;;;;;;8.50;7.60;;;;;;;5.01;100.00;96172.34;5027568;28;101907;-61
2023/03/19 06:13:57;;;;;;;8.93;7.97;;;;;;;5.15;100.00;96188.81;5012209;28;103741;-62
2023/03/19 06:16:25;;;;;;;8.70;7.80;;;;;;;5.24;100.00;96187.50;5009198;28;102178;-61
2023/03/19 06:18:54;;;;;;;9.20;7.77;;;;;;;5.42;100.00;96201.44;5009287;28;105218;-61
2023/03/19 06:21:24;;;;;;;8.80;7.90;;;;;;;5.53;100.00;96191.97;5010495;28;102729;-61
2023/03/19 06:23:51;;;;;;;9.87;8.20;;;;;;;5.75;100.00;96201.00;5029126;28;101912;-61
2023/03/19 06:26:24;;;;;;;9.90;8.90;;;;;;;5.79;100.00;96191.59;5027205;28;104329;-62
2023/03/19 06:28:54;;;;;;;12.40;8.80;;;;;;;5.83;100.00;96195.44;5008441;28;105149;-61
2023/03/19 06:31:22;;;;;;;10.73;8.60;;;;;;;6.04;100.00;96205.44;5024290;28;101934;-61
2023/03/19 06:34:04;;;;;;;11.83;9.57;;;;;;;6.20;100.00;96212.72;5028953;28;105004;-61
2023/03/19 06:36:38;;;;;;;8.80;7.90;;;;;;;6.34;100.00;96211.50;5013739;28;105367;-61
2023/03/19 06:39:09;;;;;;;11.17;8.07;;;;;;;6.40;100.00;96216.66;5008944;28;104388;-62
2023/03/19 06:41:36;;;;;;;9.83;7.90;;;;;;;6.57;100.00;96216.78;5009212;28;105367;-62
2023/03/19 06:44:12;;;;;;;10.00;8.70;;;;;;;6.64;100.00;96209.53;5009027;28;102052;-62
2023/03/19 06:46:39;;;;;;;10.33;8.23;;;;;;;6.74;100.00;96210.59;5010553;28;102427;-62
2023/03/19 06:49:07;;;;;;;9.60;7.70;;;;;;;6.82;100.00;96220.78;5013149;28;102856;-62
2023/03/19 06:51:34;;;;;;;8.80;7.90;;;;;;;7.01;100.00;96218.81;5029283;28;101971;-62
2023/03/19 06:54:06;;;;;;;9.23;7.10;;;;;;;7.04;100.00;96229.75;5030471;27;102471;-62
2023/03/19 06:56:35;;;;;;;13.70;8.00;;;;;;;7.17;100.00;96224.22;5027896;27;102951;-62
2023/03/19 06:59:03;;;;;;;7.60;6.13;;;;;;;7.37;100.00;96229.13;5012162;28;101799;-62
2023/03/19 07:01:30;;;;;;;7.63;6.90;;;;;;;7.61;100.00;96230.66;5008207;28;105306;-62
2023/03/19 07:04:04;;;;;;;7.57;6.77;;;;;;;7.91;100.00;96252.41;5010202;28;101879;-62
2023/03/19 07:06:33;;;;;;;10.23;8.13;;;;;;;7.93;100.00;96248.50;5008761;28;105569;-62
2023/03/19 07:09:00;;;;;;;7.40;6.70;;;;;;;8.22;100.00;96250.09;5007944;28;103951;-62
2023/03/19 07:11:27;;;;;;;6.30;4.90;;;;;;;8.33;100.00;96251.88;5009955;28;101819;-62
2023/03/19 07:13:56;;;;;;;6.67;5.17;;;;;;;8.70;100.00;96260.16;5008507;28;105235;-62
2023/03/19 07:16:23;;;;;;;4.87;4.47;;;;;;;8.88;100.00;96257.28;5023844;28;102555;-62
2023/03/19 07:18:50;;;;;;;5.30;4.67;;;;;;;9.03;100.00;96260.13;5032302;28;101886;-62
2023/03/19 07:21:17;;;;;;;5.40;4.27;;;;;;;9.11;100.00;96267.69;5029510;27;102503;-62
2023/03/19 07:24:14;;;;;;;6.63;4.83;;;;;;;9.17;100.00;96269.38;5029944;27;102023;-62
2023/03/19 07:26:42;;;;;;;6.87;4.47;;;;;;;9.44;100.00;96281.66;5027995;27;103039;-62
2023/03/19 07:29:10;;;;;;;6.50;4.10;;;;;;;9.93;100.00;96290.53;5007828;28;105835;-62
2023/03/19 07:31:37;;;;;;;5.63;4.13;;;;;;;10.05;100.00;96278.75;5008445;28;101894;-62
2023/03/19 07:34:05;;;;;;;5.53;3.83;;;;;;;10.26;100.00;96285.84;5018503;28;105313;-62
2023/03/19 07:36:32;;;;;;;5.53;4.20;;;;;;;10.48;100.00;96285.81;5028104;28;105365;-62
2023/03/19 07:38:59;;;;;;;6.23;3.80;;;;;;;10.80;100.00;96291.97;5029804;27;101946;-62
2023/03/19 07:41:27;;;;;;;5.50;3.83;;;;;;;11.33;100.00;96291.81;5031351;28;105551;-62
2023/03/19 07:44:14;;;;;;;4.90;3.60;;;;;;;11.63;100.00;96297.34;5029244;27;104199;-62
2023/03/19 07:46:41;;;;;;;4.87;3.83;;;;;;;11.83;100.00;96287.56;5029964;27;102842;-62
2023/03/19 07:49:08;;;;;;;5.27;3.27;;;;;;;11.98;100.00;96292.16;5027881;28;105172;-62
2023/03/19 07:51:35;;;;;;;3.33;3.00;;;;;;;12.24;100.00;96288.50;5029504;27;101817;-62
2023/03/19 07:54:51;;;;;;;3.83;2.67;;;;;;;12.38;100.00;96298.41;5029445;28;102400;-62
2023/03/19 07:57:19;;;;;;;4.87;3.33;;;;;;;12.50;100.00;96303.50;5009028;28;102883;-62
2023/03/19 07:59:46;;;;;;;3.93;2.67;;;;;;;12.32;100.00;96301.34;5009452;28;101871;-62
2023/03/19 08:02:14;;;;;;;4.80;3.00;;;;;;;12.39;100.00;96299.22;5007835;28;105314;-62
2023/03/19 08:04:47;;;;;;;3.67;2.43;;;;;;;12.53;100.00;96298.44;5011961;28;103092;-62
2023/03/19 08:07:14;;;;;;;3.27;2.57;;;;;;;12.57;100.00;96299.53;5010072;28;103555;-62
2023/03/19 08:09:42;;;;;;;5.23;2.63;;;;;;;12.63;100.00;96292.31;5010305;28;105614;-62
2023/03/19 08:12:10;;;;;;;4.00;2.60;;;;;;;12.78;100.00;96297.66;5012285;28;102096;-63
2023/03/19 08:14:43;;;;;;;3.60;2.80;;;;;;;12.62;100.00;96301.38;5013547;28;105852;-62
2023/03/19 08:17:10;;;;;;;5.07;2.60;;;;;;;12.42;100.00;96307.50;5010745;28;105790;-62
2023/03/19 08:19:37;;;;;;;5.10;2.83;;;;;;;12.51;100.00;96310.44;5012684;28;101824;-62
2023/03/19 08:22:03;;;;;;;3.07;2.47;;;;;;;12.46;100.00;96299.75;5012643;28;102435;-62
2023/03/19 08:24:41;;;;;;;3.47;2.67;;;;;;;12.47;100.00;96307.50;5010643;28;105543;-62
2023/03/19 08:27:08;;;;;;;4.07;2.40;;;;;;;12.48;100.00;96305.66;5021066;28;101859;-62
2023/03/19 08:29:36;;;;;;;6.13;3.00;;;;;;;12.66;100.00;96302.47;5017921;27;102583;-62
2023/03/19 08:32:04;;;;;;;3.50;3.00;;;;;;;12.55;100.00;96304.34;5019257;28;101929;-62
2023/03/19 08:34:33;;;;;;;2.57;2.37;;;;;;;12.66;100.00;96319.28;5032143;27;102878;-62
2023/03/19 08:36:59;;;;;;;3.73;2.53;;;;;;;12.72;100.00;96310.22;5030320;27;103444;-62
2023/03/19 08:39:26;;;;;;;2.67;2.10;;;;;;;12.63;100.00;96319.81;5030724;28;101868;-62
2023/03/19 08:41:53;;;;;;;2.90;2.63;;;;;;;12.71;100.00;96316.59;5030078;28;105103;-63
2023/03/19 08:44:20;;;;;;;2.47;2.20;;;;;;;12.76;100.00;96316.59;5030157;28;105346;-62
2023/03/19 08:46:47;;;;;;;4.13;2.20;;;;;;;12.93;100.00;96319.81;5031374;27;101998;-62
2023/03/19 08:49:15;;;;;;;7.83;2.20;;;;;;;12.89;100.00;96312.63;5034765;27;102923;-62
2023/03/19 08:51:42;;;;;;;4.30;2.23;;;;;;;12.92;100.00;96328.13;5031416;27;101825;-62
2023/03/19 08:54:10;;;;;;;2.63;1.90;;;;;;;12.86;100.00;96329.19;5027677;28;103507;-62
2023/03/19 08:56:36;;;;;;;3.00;2.00;;;;;;;12.78;100.00;96337.69;5011245;28;102747;-62
2023/03/19 08:59:03;;;;;;;2.37;2.00;;;;;;;12.86;100.00;96323.84;5010451;28;101963;-62
2023/03/19 09:01:30;;;;;;;2.97;2.10;;;;;;;12.80;100.00;96330.25;5014039;28;105256;-63
2023/03/19 09:03:57;;;;;;;3.97;2.33;;;;;;;12.85;100.00;96335.56;5031286;27;102804;-62
2023/03/19 09:06:25;;;;;;;3.63;2.30;;;;;;;12.85;100.00;96327.56;5028776;28;101874;-62
2023/03/19 09:08:52;;;;;;;3.17;2.20;;;;;;;12.92;100.00;96333.44;5031645;27;102373;-62
2023/03/19 09:11:19;;;;;;;2.67;2.10;;;;;;;12.96;100.00;96339.88;5033870;27;102332;-62
2023/03/19 09:13:46;;;;;;;2.47;2.27;;;;;;;13.06;100.00;96335.34;5030467;28;105370;-62
2023/03/19 09:16:13;;;;;;;2.20;2.00;;;;;;;13.28;100.00;96332.41;5029910;27;102629;-62
2023/03/19 09:18:40;;;;;;;3.50;2.13;;;;;;;13.30;100.00;96332.94;5030237;27;102110;-62
2023/03/19 09:21:06;;;;;;;2.17;1.90;;;;;;;13.39;100.00;96336.66;5028537;28;105428;-62
2023/03/19 09:23:35;;;;;;;3.97;2.50;;;;;;;13.33;100.00;96343.09;5030680;27;102870;-62
2023/03/19 09:26:02;;;;;;;3.03;2.20;;;;;;;13.27;100.00;96346.81;5030733;27;101874;-62
2023/03/19 09:28:28;;;;;;;3.67;2.00;;;;;;;13.16;100.00;96346.03;5013308;28;105479;-62
2023/03/19 09:30:56;;;;;;;3.73;2.57;;;;;;;13.16;100.00;96346.03;5032832;28;103871;-62
2023/03/19 09:33:23;;;;;;;3.13;2.27;;;;;;;13.29;100.00;96336.66;5028949;27;103484;-62
2023/03/19 09:35:51;;;;;;;4.70;3.63;;;;;;;13.44;100.00;96342.00;5015191;28;102609;-62
2023/03/19 09:38:18;;;;;;;3.93;3.10;;;;;;;13.49;100.00;96344.66;5031165;28;102145;-62
2023/03/19 09:40:49;;;;;;;4.70;2.53;;;;;;;13.48;100.00;96349.22;5028258;28;105384;-62
2023/03/19 09:43:45;;;;;;;6.17;2.00;;;;;;;13.39;100.00;96345.50;5009977;28;103375;-62
2023/03/19 09:46:17;;;;;;;2.30;2.10;;;;;;;13.38;100.00;96343.91;5009606;28;102032;-62
2023/03/19 09:48:51;;;;;;;3.17;2.50;;;;;;;13.32;100.00;96352.16;5009628;28;105100;-62
2023/03/19 09:51:24;;;;;;;2.97;1.97;;;;;;;13.29;100.00;96345.50;5009958;28;105472;-62
2023/03/19 09:53:56;;;;;;;2.83;2.27;;;;;;;13.43;100.00;96351.09;5019461;28;101846;-62
2023/03/19 09:56:26;;;;;;;2.97;2.50;;;;;;;13.34;100.00;96347.34;5010343;28;103828;-62
2023/03/19 09:58:54;;;;;;;5.43;2.87;;;;;;;13.42;100.00;96352.94;5012283;28;101871;-62
2023/03/19 10:01:25;;;;;;;5.43;2.27;;;;;;;13.42;100.00;96344.94;5010896;28;102582;-62
2023/03/19 10:04:19;;;;;;;3.33;2.60;;;;;;;13.47;100.00;96344.16;5008857;28;105992;-62
2023/03/19 10:06:47;;;;;;;4.17;2.20;;;;;;;13.54;100.00;96342.00;5009303;28;101913;-62
2023/03/19 10:09:36;;;;;;;5.67;2.97;;;;;;;13.64;100.00;96340.13;5011409;28;102401;-62
2023/03/19 10:12:20;;;;;;;3.97;2.20;;;;;;;13.95;100.00;96332.81;5010398;28;101975;-62
2023/03/19 10:14:59;;;;;;;2.90;2.37;;;;;;;14.00;100.00;96335.47;5023089;28;101828;-62
2023/03/19 10:17:30;;;;;;;2.67;2.10;;;;;;;14.01;100.00;96334.41;5033090;28;102937;-62
2023/03/19 10:20:01;;;;;;;3.00;2.33;;;;;;;14.17;100.00;96333.28;5029265;28;101897;-62
2023/03/19 10:22:32;;;;;;;2.77;2.33;;;;;;;14.11;100.00;96331.69;5023765;27;102262;-62
2023/03/19 10:25:00;;;;;;;3.27;2.83;;;;;;;14.21;100.00;96331.66;5009841;28;102603;-62
2023/03/19 10:27:29;;;;;;;3.23;2.53;;;;;;;14.34;100.00;96331.09;5025471;28;101855;-62
2023/03/19 10:29:56;;;;;;;2.33;1.97;;;;;;;14.36;100.00;96328.94;5015871;28;105595;-62
2023/03/19 10:32:33;;;;;;;2.83;1.90;;;;;;;14.57;100.00;96325.88;5008155;28;105377;-62
2023/03/19 10:35:05;;;;;;;2.53;2.00;;;;;;;14.58;100.00;96321.31;5026326;28;101938;-62
2023/03/19 10:37:35;;;;;;;3.03;1.83;;;;;;;14.50;100.00;96329.94;5024462;28;102531;-62
2023/03/19 10:40:03;;;;;;;4.27;2.27;;;;;;;14.28;100.00;96329.50;5013089;28;102618;-62
2023/03/19 10:43:00;;;;;;;2.50;2.07;;;;;;;14.23;100.00;96319.63;5009659;28;102397;-62
2023/03/19 10:45:30;;;;;;;2.60;2.40;;;;;;;14.21;100.00;96312.94;5008202;28;105843;-62
2023/03/19 10:47:58;;;;;;;3.60;2.60;;;;;;;14.36;100.00;96319.03;5010013;28;101905;-62
2023/03/19 10:50:30;;;;;;;3.83;2.20;;;;;;;14.26;100.00;96320.94;5010190;28;102856;-62
2023/03/19 10:53:05;;;;;;;3.47;2.30;;;;;;;14.15;100.00;96319.34;4998766;28;106655;-62
2023/03/19 10:55:33;;;;;;;3.27;2.17;;;;;;;14.04;100.00;96317.81;5018243;27;101679;-62
2023/03/19 10:58:16;;;;;;;2.30;2.07;;;;;;;14.17;100.00;96318.00;5009701;28;103695;-62
2023/03/19 11:00:46;;;;;;;2.40;2.20;;;;;;;14.29;100.00;96321.19;5009306;28;102778;-62
2023/03/19 11:03:30;;;;;;;3.40;2.20;;;;;;;14.09;100.00;96323.13;5013095;28;101869;-62
2023/03/19 11:06:16;;;;;;;2.37;2.10;;;;;;;14.12;100.00;96323.38;5009436;28;102703;-62
2023/03/19 11:08:43;;;;;;;3.57;2.17;;;;;;;14.14;100.00;96328.47;5009435;28;102092;-62
2023/03/19 11:11:23;;;;;;;2.37;2.00;;;;;;;14.22;100.00;96323.38;5009664;28;103030;-62
2023/03/19 11:13:52;;;;;;;3.70;2.63;;;;;;;14.42;100.00;96327.81;5007907;28;105412;-62
2023/03/19 11:16:19;;;;;;;2.20;2.00;;;;;;;14.15;100.00;96327.38;5010007;28;101820;-62
2023/03/19 11:18:49;;;;;;;2.53;2.10;;;;;;;14.19;100.00;96317.75;5009187;28;105132;-62
2023/03/19 11:21:24;;;;;;;2.37;2.10;;;;;;;14.39;100.00;96321.16;5008799;28;103178;-62
2023/03/19 11:24:01;;;;;;;3.43;2.10;;;;;;;14.56;100.00;96318.13;5012921;28;101885;-62
2023/03/19 11:26:28;;;;;;;3.77;2.10;;;;;;;14.37;100.00;96320.63;5027705;28;101866;-62
2023/03/19 11:29:03;;;;;;;4.73;2.30;;;;;;;14.28;100.00;96316.13;5029216;27;101875;-62
2023/03/19 11:31:37;;;;;;;3.10;2.27;;;;;;;14.33;100.00;96310.78;5028214;28;105047;-62
2023/03/19 11:34:17;;;;;;;2.47;2.20;;;;;;;14.34;100.00;96309.69;5027202;28;105544;-62
2023/03/19 11:36:53;;;;;;;3.23;2.07;;;;;;;14.45;100.00;96308.56;5027849;28;101860;-62
2023/03/19 11:39:29;;;;;;;3.90;2.30;;;;;;;14.56;100.00;96307.41;5026188;28;105595;-62